Terminal Aerodrome Forecast
Issued by NWS

Home | Current Version | Previous Version | Text Only | Print | Product List | Glossary On
Versions: 1 2 3 4 5 6 7 8 9 10 11 12 13 14 15 16 17
000
FTPQ31 PGUM 250531
TAFGUM
TAF

TAF
PGSN 250531Z 2506/2606 09015G23KT P6SM VCTS SCT015CB SCT030 OVC090
      TEMPO 2506/2510 11018G30KT 2SM TSRA SCT012CB OVC030
     FM251200 10013G23KT 6SM -SHRA SCT015 BKN030 OVC100
     FM252000 10013KT P6SM VCSH SCT016 SCT050 BKN130=

USA.gov is the U.S. government's official web portal to all federal, state and local government web resources and services.